sensor_id;sensor_type;location;lat;lon;timestamp;P1;durP1;ratioP1;P2;durP2;ratioP2
73900;SDS011;62235;52.160;7.526;2022-12-18T00:01:30;35.60;;;14.13;;
73900;SDS011;62235;52.160;7.526;2022-12-18T00:03:58;45.20;;;16.35;;
73900;SDS011;62235;52.160;7.526;2022-12-18T00:06:24;30.23;;;12.67;;
73900;SDS011;62235;52.160;7.526;2022-12-18T00:08:50;43.28;;;18.20;;
73900;SDS011;62235;52.160;7.526;2022-12-18T00:11:17;40.03;;;13.63;;
73900;SDS011;62235;52.160;7.526;2022-12-18T00:13:44;37.88;;;16.02;;
73900;SDS011;62235;52.160;7.526;2022-12-18T00:16:11;48.25;;;20.27;;
73900;SDS011;62235;52.160;7.526;2022-12-18T00:18:38;39.65;;;15.65;;
73900;SDS011;62235;52.160;7.526;2022-12-18T00:21:04;53.90;;;18.83;;
73900;SDS011;62235;52.160;7.526;2022-12-18T00:23:31;41.92;;;17.70;;
73900;SDS011;62235;52.160;7.526;2022-12-18T00:26:04;38.65;;;14.80;;
73900;SDS011;62235;52.160;7.526;2022-12-18T00:28:30;41.33;;;17.70;;
73900;SDS011;62235;52.160;7.526;2022-12-18T00:31:00;41.10;;;16.80;;
73900;SDS011;62235;52.160;7.526;2022-12-18T00:33:26;51.10;;;20.88;;
73900;SDS011;62235;52.160;7.526;2022-12-18T00:35:51;56.10;;;19.90;;
73900;SDS011;62235;52.160;7.526;2022-12-18T00:38:16;51.77;;;19.37;;
73900;SDS011;62235;52.160;7.526;2022-12-18T00:40:41;60.23;;;23.37;;
73900;SDS011;62235;52.160;7.526;2022-12-18T00:43:07;57.63;;;17.57;;
73900;SDS011;62235;52.160;7.526;2022-12-18T00:45:32;43.97;;;16.63;;
73900;SDS011;62235;52.160;7.526;2022-12-18T00:47:57;50.93;;;16.03;;
73900;SDS011;62235;52.160;7.526;2022-12-18T00:50:24;47.67;;;16.33;;
73900;SDS011;62235;52.160;7.526;2022-12-18T00:52:50;43.35;;;16.80;;
73900;SDS011;62235;52.160;7.526;2022-12-18T00:55:15;49.63;;;19.08;;
73900;SDS011;62235;52.160;7.526;2022-12-18T00:57:41;39.42;;;14.52;;
73900;SDS011;62235;52.160;7.526;2022-12-18T01:00:07;38.85;;;14.68;;
73900;SDS011;62235;52.160;7.526;2022-12-18T01:02:33;45.95;;;17.55;;
73900;SDS011;62235;52.160;7.526;2022-12-18T01:04:59;48.07;;;17.20;;
73900;SDS011;62235;52.160;7.526;2022-12-18T01:07:24;37.40;;;15.60;;
73900;SDS011;62235;52.160;7.526;2022-12-18T01:09:49;43.50;;;16.50;;
73900;SDS011;62235;52.160;7.526;2022-12-18T01:12:15;36.00;;;13.30;;
73900;SDS011;62235;52.160;7.526;2022-12-18T01:14:40;46.93;;;17.30;;
73900;SDS011;62235;52.160;7.526;2022-12-18T01:17:05;48.33;;;17.53;;
73900;SDS011;62235;52.160;7.526;2022-12-18T01:19:31;35.95;;;15.38;;
73900;SDS011;62235;52.160;7.526;2022-12-18T01:21:56;41.80;;;14.23;;
73900;SDS011;62235;52.160;7.526;2022-12-18T01:24:22;41.88;;;15.07;;
73900;SDS011;62235;52.160;7.526;2022-12-18T01:26:47;38.97;;;14.13;;
73900;SDS011;62235;52.160;7.526;2022-12-18T01:29:13;45.10;;;15.93;;
73900;SDS011;62235;52.160;7.526;2022-12-18T01:31:38;47.77;;;19.20;;
73900;SDS011;62235;52.160;7.526;2022-12-18T01:34:04;41.40;;;15.23;;
73900;SDS011;62235;52.160;7.526;2022-12-18T01:36:31;46.55;;;18.35;;
73900;SDS011;62235;52.160;7.526;2022-12-18T01:39:02;47.38;;;17.48;;
73900;SDS011;62235;52.160;7.526;2022-12-18T01:41:30;45.00;;;17.40;;
73900;SDS011;62235;52.160;7.526;2022-12-18T01:49:48;45.15;;;17.88;;
73900;SDS011;62235;52.160;7.526;2022-12-18T01:52:14;45.55;;;19.67;;
73900;SDS011;62235;52.160;7.526;2022-12-18T01:54:40;34.28;;;13.90;;
73900;SDS011;62235;52.160;7.526;2022-12-18T01:57:05;37.78;;;15.98;;
73900;SDS011;62235;52.160;7.526;2022-12-18T01:59:31;40.55;;;14.65;;
73900;SDS011;62235;52.160;7.526;2022-12-18T02:01:57;44.30;;;16.40;;
73900;SDS011;62235;52.160;7.526;2022-12-18T02:04:24;48.97;;;18.90;;
73900;SDS011;62235;52.160;7.526;2022-12-18T02:06:52;33.63;;;11.73;;
73900;SDS011;62235;52.160;7.526;2022-12-18T02:09:28;43.70;;;16.02;;
73900;SDS011;62235;52.160;7.526;2022-12-18T02:12:04;43.08;;;17.95;;
73900;SDS011;62235;52.160;7.526;2022-12-18T02:14:38;47.05;;;18.83;;
73900;SDS011;62235;52.160;7.526;2022-12-18T02:17:52;44.08;;;16.50;;
73900;SDS011;62235;52.160;7.526;2022-12-18T02:20:12;51.75;;;21.00;;
73900;SDS011;62235;52.160;7.526;2022-12-18T02:28:16;36.42;;;14.35;;
73900;SDS011;62235;52.160;7.526;2022-12-18T02:30:45;37.15;;;13.18;;
73900;SDS011;62235;52.160;7.526;2022-12-18T02:33:13;39.47;;;15.63;;
73900;SDS011;62235;52.160;7.526;2022-12-18T02:35:39;40.75;;;15.02;;
73900;SDS011;62235;52.160;7.526;2022-12-18T02:38:06;44.72;;;17.10;;
73900;SDS011;62235;52.160;7.526;2022-12-18T02:40:31;38.10;;;15.23;;
73900;SDS011;62235;52.160;7.526;2022-12-18T02:43:30;45.40;;;16.23;;
73900;SDS011;62235;52.160;7.526;2022-12-18T02:45:58;35.22;;;14.27;;
73900;SDS011;62235;52.160;7.526;2022-12-18T02:48:27;40.38;;;15.40;;
73900;SDS011;62235;52.160;7.526;2022-12-18T02:51:11;37.70;;;13.75;;
73900;SDS011;62235;52.160;7.526;2022-12-18T02:53:49;41.53;;;15.00;;
73900;SDS011;62235;52.160;7.526;2022-12-18T02:56:19;44.92;;;15.88;;
73900;SDS011;62235;52.160;7.526;2022-12-18T02:59:07;41.42;;;14.77;;
73900;SDS011;62235;52.160;7.526;2022-12-18T03:04:20;40.95;;;15.88;;
73900;SDS011;62235;52.160;7.526;2022-12-18T03:06:53;38.63;;;14.27;;
73900;SDS011;62235;52.160;7.526;2022-12-18T03:09:33;37.40;;;14.73;;
73900;SDS011;62235;52.160;7.526;2022-12-18T03:12:05;34.25;;;12.70;;
73900;SDS011;62235;52.160;7.526;2022-12-18T03:15:02;31.48;;;12.15;;
73900;SDS011;62235;52.160;7.526;2022-12-18T03:17:37;33.58;;;14.05;;
73900;SDS011;62235;52.160;7.526;2022-12-18T03:20:17;35.75;;;14.63;;
73900;SDS011;62235;52.160;7.526;2022-12-18T03:22:45;26.42;;;9.73;;
73900;SDS011;62235;52.160;7.526;2022-12-18T03:25:13;29.60;;;9.82;;
73900;SDS011;62235;52.160;7.526;2022-12-18T03:27:40;19.75;;;8.48;;
73900;SDS011;62235;52.160;7.526;2022-12-18T03:30:09;27.20;;;12.27;;
73900;SDS011;62235;52.160;7.526;2022-12-18T03:33:00;30.70;;;13.15;;
73900;SDS011;62235;52.160;7.526;2022-12-18T03:35:42;35.92;;;15.05;;
73900;SDS011;62235;52.160;7.526;2022-12-18T03:38:09;38.25;;;13.93;;
73900;SDS011;62235;52.160;7.526;2022-12-18T03:40:40;44.42;;;15.00;;
73900;SDS011;62235;52.160;7.526;2022-12-18T03:43:10;39.83;;;15.30;;
73900;SDS011;62235;52.160;7.526;2022-12-18T03:45:42;41.03;;;17.02;;
73900;SDS011;62235;52.160;7.526;2022-12-18T03:48:22;42.42;;;16.73;;
73900;SDS011;62235;52.160;7.526;2022-12-18T03:53:43;44.05;;;18.42;;
73900;SDS011;62235;52.160;7.526;2022-12-18T03:56:20;40.78;;;16.77;;
73900;SDS011;62235;52.160;7.526;2022-12-18T03:58:46;43.42;;;16.15;;
73900;SDS011;62235;52.160;7.526;2022-12-18T04:01:14;40.13;;;16.10;;
73900;SDS011;62235;52.160;7.526;2022-12-18T04:03:40;37.25;;;15.57;;
73900;SDS011;62235;52.160;7.526;2022-12-18T04:06:06;34.85;;;14.25;;
73900;SDS011;62235;52.160;7.526;2022-12-18T04:08:32;36.47;;;14.75;;
73900;SDS011;62235;52.160;7.526;2022-12-18T04:11:00;36.33;;;15.77;;
73900;SDS011;62235;52.160;7.526;2022-12-18T04:13:29;36.33;;;14.30;;
73900;SDS011;62235;52.160;7.526;2022-12-18T04:15:58;31.33;;;11.68;;
73900;SDS011;62235;52.160;7.526;2022-12-18T04:18:23;32.17;;;13.13;;
73900;SDS011;62235;52.160;7.526;2022-12-18T04:20:48;36.22;;;13.52;;
73900;SDS011;62235;52.160;7.526;2022-12-18T04:23:14;38.07;;;14.67;;
73900;SDS011;62235;52.160;7.526;2022-12-18T04:25:39;35.23;;;14.47;;
73900;SDS011;62235;52.160;7.526;2022-12-18T04:28:04;35.08;;;14.63;;
73900;SDS011;62235;52.160;7.526;2022-12-18T04:30:30;35.53;;;15.55;;
73900;SDS011;62235;52.160;7.526;2022-12-18T04:32:55;34.83;;;14.30;;
73900;SDS011;62235;52.160;7.526;2022-12-18T04:35:22;38.70;;;14.98;;
73900;SDS011;62235;52.160;7.526;2022-12-18T04:37:47;37.80;;;15.07;;
73900;SDS011;62235;52.160;7.526;2022-12-18T04:40:12;35.23;;;13.73;;
73900;SDS011;62235;52.160;7.526;2022-12-18T04:42:38;35.07;;;14.60;;
73900;SDS011;62235;52.160;7.526;2022-12-18T04:45:04;27.98;;;13.18;;
73900;SDS011;62235;52.160;7.526;2022-12-18T04:47:30;36.30;;;15.45;;
73900;SDS011;62235;52.160;7.526;2022-12-18T04:49:56;34.35;;;13.82;;
73900;SDS011;62235;52.160;7.526;2022-12-18T04:52:21;32.83;;;13.37;;
73900;SDS011;62235;52.160;7.526;2022-12-18T04:54:46;36.30;;;15.53;;
73900;SDS011;62235;52.160;7.526;2022-12-18T04:57:12;32.83;;;13.43;;
73900;SDS011;62235;52.160;7.526;2022-12-18T04:59:37;33.33;;;12.43;;
73900;SDS011;62235;52.160;7.526;2022-12-18T05:02:02;36.97;;;13.67;;
73900;SDS011;62235;52.160;7.526;2022-12-18T05:04:27;26.07;;;11.53;;
73900;SDS011;62235;52.160;7.526;2022-12-18T05:06:53;35.17;;;14.77;;
73900;SDS011;62235;52.160;7.526;2022-12-18T05:09:18;34.88;;;13.70;;
73900;SDS011;62235;52.160;7.526;2022-12-18T05:11:43;32.47;;;12.83;;
73900;SDS011;62235;52.160;7.526;2022-12-18T05:14:09;36.43;;;15.30;;
73900;SDS011;62235;52.160;7.526;2022-12-18T05:16:34;38.00;;;14.90;;
73900;SDS011;62235;52.160;7.526;2022-12-18T05:18:59;34.92;;;14.63;;
73900;SDS011;62235;52.160;7.526;2022-12-18T05:21:25;31.63;;;14.20;;
73900;SDS011;62235;52.160;7.526;2022-12-18T05:23:50;30.60;;;14.13;;
73900;SDS011;62235;52.160;7.526;2022-12-18T05:26:16;28.37;;;12.43;;
73900;SDS011;62235;52.160;7.526;2022-12-18T05:28:42;25.15;;;12.85;;
73900;SDS011;62235;52.160;7.526;2022-12-18T05:31:08;29.45;;;11.90;;
73900;SDS011;62235;52.160;7.526;2022-12-18T05:33:34;28.70;;;11.63;;
73900;SDS011;62235;52.160;7.526;2022-12-18T05:36:00;26.00;;;9.93;;
73900;SDS011;62235;52.160;7.526;2022-12-18T05:38:27;25.40;;;11.27;;
73900;SDS011;62235;52.160;7.526;2022-12-18T05:40:53;28.20;;;11.70;;
73900;SDS011;62235;52.160;7.526;2022-12-18T05:43:18;24.20;;;11.02;;
73900;SDS011;62235;52.160;7.526;2022-12-18T05:45:44;25.15;;;10.20;;
73900;SDS011;62235;52.160;7.526;2022-12-18T05:48:10;24.17;;;11.32;;
73900;SDS011;62235;52.160;7.526;2022-12-18T05:50:36;23.20;;;9.80;;
73900;SDS011;62235;52.160;7.526;2022-12-18T05:53:03;20.25;;;10.38;;
73900;SDS011;62235;52.160;7.526;2022-12-18T05:55:29;26.02;;;10.63;;
73900;SDS011;62235;52.160;7.526;2022-12-18T05:57:54;20.98;;;10.90;;
73900;SDS011;62235;52.160;7.526;2022-12-18T06:00:19;22.33;;;9.83;;
73900;SDS011;62235;52.160;7.526;2022-12-18T06:02:48;23.13;;;10.20;;
73900;SDS011;62235;52.160;7.526;2022-12-18T06:05:13;21.85;;;9.95;;
73900;SDS011;62235;52.160;7.526;2022-12-18T06:07:39;27.30;;;10.13;;
73900;SDS011;62235;52.160;7.526;2022-12-18T06:10:04;25.35;;;9.68;;
73900;SDS011;62235;52.160;7.526;2022-12-18T06:12:30;29.45;;;12.20;;
73900;SDS011;62235;52.160;7.526;2022-12-18T06:14:56;23.58;;;10.10;;
73900;SDS011;62235;52.160;7.526;2022-12-18T06:17:21;30.17;;;10.63;;
73900;SDS011;62235;52.160;7.526;2022-12-18T06:19:46;37.60;;;11.70;;
73900;SDS011;62235;52.160;7.526;2022-12-18T06:22:12;28.73;;;10.03;;
73900;SDS011;62235;52.160;7.526;2022-12-18T06:24:37;26.80;;;12.07;;
73900;SDS011;62235;52.160;7.526;2022-12-18T06:27:02;29.97;;;13.33;;
73900;SDS011;62235;52.160;7.526;2022-12-18T06:29:27;21.48;;;9.40;;
73900;SDS011;62235;52.160;7.526;2022-12-18T06:31:53;18.40;;;7.87;;
73900;SDS011;62235;52.160;7.526;2022-12-18T06:34:18;19.07;;;7.80;;
73900;SDS011;62235;52.160;7.526;2022-12-18T06:36:43;22.05;;;7.93;;
73900;SDS011;62235;52.160;7.526;2022-12-18T06:39:09;13.13;;;5.93;;
73900;SDS011;62235;52.160;7.526;2022-12-18T06:41:34;18.13;;;8.07;;
73900;SDS011;62235;52.160;7.526;2022-12-18T06:43:59;18.53;;;6.90;;
73900;SDS011;62235;52.160;7.526;2022-12-18T06:46:25;19.83;;;7.07;;
73900;SDS011;62235;52.160;7.526;2022-12-18T06:48:50;18.37;;;7.37;;
73900;SDS011;62235;52.160;7.526;2022-12-18T06:51:16;12.50;;;5.97;;
73900;SDS011;62235;52.160;7.526;2022-12-18T06:53:43;21.83;;;7.80;;
73900;SDS011;62235;52.160;7.526;2022-12-18T06:56:08;22.27;;;8.73;;
73900;SDS011;62235;52.160;7.526;2022-12-18T06:58:33;25.97;;;9.50;;
73900;SDS011;62235;52.160;7.526;2022-12-18T07:01:02;15.90;;;6.87;;
73900;SDS011;62235;52.160;7.526;2022-12-18T07:05:54;15.70;;;6.43;;
73900;SDS011;62235;52.160;7.526;2022-12-18T07:08:19;33.97;;;11.50;;
73900;SDS011;62235;52.160;7.526;2022-12-18T07:10:44;18.90;;;8.00;;
73900;SDS011;62235;52.160;7.526;2022-12-18T07:13:10;15.15;;;6.70;;
73900;SDS011;62235;52.160;7.526;2022-12-18T07:15:35;21.63;;;6.40;;
73900;SDS011;62235;52.160;7.526;2022-12-18T07:18:00;23.67;;;8.27;;
73900;SDS011;62235;52.160;7.526;2022-12-18T07:20:26;54.97;;;15.87;;
73900;SDS011;62235;52.160;7.526;2022-12-18T07:22:51;39.90;;;11.00;;
73900;SDS011;62235;52.160;7.526;2022-12-18T07:25:16;20.02;;;8.05;;
73900;SDS011;62235;52.160;7.526;2022-12-18T07:27:42;20.33;;;9.30;;
73900;SDS011;62235;52.160;7.526;2022-12-18T07:30:07;22.20;;;7.87;;
73900;SDS011;62235;52.160;7.526;2022-12-18T07:32:33;26.17;;;8.90;;
73900;SDS011;62235;52.160;7.526;2022-12-18T07:34:59;30.98;;;8.98;;
73900;SDS011;62235;52.160;7.526;2022-12-18T07:37:24;29.53;;;9.70;;
73900;SDS011;62235;52.160;7.526;2022-12-18T07:39:50;36.10;;;11.70;;
73900;SDS011;62235;52.160;7.526;2022-12-18T07:42:15;18.60;;;8.40;;
73900;SDS011;62235;52.160;7.526;2022-12-18T07:44:55;36.15;;;10.88;;
73900;SDS011;62235;52.160;7.526;2022-12-18T07:47:21;20.88;;;9.38;;
73900;SDS011;62235;52.160;7.526;2022-12-18T07:49:46;16.57;;;7.67;;
73900;SDS011;62235;52.160;7.526;2022-12-18T07:52:11;14.43;;;7.33;;
73900;SDS011;62235;52.160;7.526;2022-12-18T07:54:37;15.98;;;7.75;;
73900;SDS011;62235;52.160;7.526;2022-12-18T07:57:02;11.20;;;5.20;;
73900;SDS011;62235;52.160;7.526;2022-12-18T07:59:28;16.33;;;7.75;;
73900;SDS011;62235;52.160;7.526;2022-12-18T08:01:53;15.43;;;7.23;;
73900;SDS011;62235;52.160;7.526;2022-12-18T08:04:18;18.83;;;8.13;;
73900;SDS011;62235;52.160;7.526;2022-12-18T08:06:44;14.63;;;6.90;;
73900;SDS011;62235;52.160;7.526;2022-12-18T08:09:09;22.43;;;10.93;;
73900;SDS011;62235;52.160;7.526;2022-12-18T08:11:35;19.35;;;8.57;;
73900;SDS011;62235;52.160;7.526;2022-12-18T08:14:00;16.17;;;8.70;;
73900;SDS011;62235;52.160;7.526;2022-12-18T08:16:26;16.73;;;6.07;;
73900;SDS011;62235;52.160;7.526;2022-12-18T08:18:51;16.05;;;8.07;;
73900;SDS011;62235;52.160;7.526;2022-12-18T08:21:19;11.88;;;6.57;;
73900;SDS011;62235;52.160;7.526;2022-12-18T08:23:49;17.02;;;7.85;;
73900;SDS011;62235;52.160;7.526;2022-12-18T08:26:15;23.80;;;12.23;;
73900;SDS011;62235;52.160;7.526;2022-12-18T08:28:41;18.98;;;9.45;;
73900;SDS011;62235;52.160;7.526;2022-12-18T08:31:07;13.05;;;5.78;;
73900;SDS011;62235;52.160;7.526;2022-12-18T08:33:33;13.23;;;5.30;;
73900;SDS011;62235;52.160;7.526;2022-12-18T08:35:58;18.90;;;7.82;;
73900;SDS011;62235;52.160;7.526;2022-12-18T08:38:24;19.27;;;9.57;;
73900;SDS011;62235;52.160;7.526;2022-12-18T08:40:53;25.03;;;12.30;;
73900;SDS011;62235;52.160;7.526;2022-12-18T08:43:23;19.33;;;8.85;;
73900;SDS011;62235;52.160;7.526;2022-12-18T08:46:07;16.77;;;8.25;;
73900;SDS011;62235;52.160;7.526;2022-12-18T08:48:32;17.47;;;8.03;;
73900;SDS011;62235;52.160;7.526;2022-12-18T08:50:58;15.90;;;8.10;;
73900;SDS011;62235;52.160;7.526;2022-12-18T08:53:24;18.38;;;8.02;;
73900;SDS011;62235;52.160;7.526;2022-12-18T08:55:50;21.67;;;10.23;;
73900;SDS011;62235;52.160;7.526;2022-12-18T08:58:15;18.87;;;8.83;;
73900;SDS011;62235;52.160;7.526;2022-12-18T09:00:40;17.37;;;8.37;;
73900;SDS011;62235;52.160;7.526;2022-12-18T09:03:10;20.47;;;9.47;;
73900;SDS011;62235;52.160;7.526;2022-12-18T09:05:36;15.77;;;6.80;;
73900;SDS011;62235;52.160;7.526;2022-12-18T09:08:02;18.63;;;8.70;;
73900;SDS011;62235;52.160;7.526;2022-12-18T09:10:27;26.80;;;11.17;;
73900;SDS011;62235;52.160;7.526;2022-12-18T09:12:52;24.13;;;12.53;;
73900;SDS011;62235;52.160;7.526;2022-12-18T09:15:18;32.97;;;14.87;;
73900;SDS011;62235;52.160;7.526;2022-12-18T09:17:43;30.50;;;13.10;;
73900;SDS011;62235;52.160;7.526;2022-12-18T09:20:08;31.57;;;11.93;;
73900;SDS011;62235;52.160;7.526;2022-12-18T09:22:34;37.42;;;14.05;;
73900;SDS011;62235;52.160;7.526;2022-12-18T09:24:59;31.83;;;13.50;;
73900;SDS011;62235;52.160;7.526;2022-12-18T09:27:25;33.03;;;11.87;;
73900;SDS011;62235;52.160;7.526;2022-12-18T09:29:50;35.45;;;13.75;;
73900;SDS011;62235;52.160;7.526;2022-12-18T09:32:15;42.07;;;13.90;;
73900;SDS011;62235;52.160;7.526;2022-12-18T09:34:41;33.35;;;13.98;;
73900;SDS011;62235;52.160;7.526;2022-12-18T09:37:06;13.60;;;6.65;;
73900;SDS011;62235;52.160;7.526;2022-12-18T09:39:35;11.57;;;5.93;;
73900;SDS011;62235;52.160;7.526;2022-12-18T09:42:00;12.52;;;5.63;;
73900;SDS011;62235;52.160;7.526;2022-12-18T09:44:27;21.75;;;6.90;;
73900;SDS011;62235;52.160;7.526;2022-12-18T09:46:58;42.33;;;13.57;;
73900;SDS011;62235;52.160;7.526;2022-12-18T09:49:29;24.52;;;7.25;;
73900;SDS011;62235;52.160;7.526;2022-12-18T09:51:57;52.95;;;14.90;;
73900;SDS011;62235;52.160;7.526;2022-12-18T09:54:35;17.02;;;8.40;;
73900;SDS011;62235;52.160;7.526;2022-12-18T09:57:04;11.13;;;5.20;;
73900;SDS011;62235;52.160;7.526;2022-12-18T09:59:31;11.83;;;5.63;;
73900;SDS011;62235;52.160;7.526;2022-12-18T10:01:59;10.20;;;5.53;;
73900;SDS011;62235;52.160;7.526;2022-12-18T10:04:24;11.40;;;5.57;;
73900;SDS011;62235;52.160;7.526;2022-12-18T10:06:52;9.70;;;4.63;;
73900;SDS011;62235;52.160;7.526;2022-12-18T10:11:57;8.40;;;3.75;;
73900;SDS011;62235;52.160;7.526;2022-12-18T10:20:21;16.85;;;7.80;;
73900;SDS011;62235;52.160;7.526;2022-12-18T10:25:39;11.93;;;5.68;;
73900;SDS011;62235;52.160;7.526;2022-12-18T10:28:16;11.23;;;5.63;;
73900;SDS011;62235;52.160;7.526;2022-12-18T10:30:42;12.18;;;7.25;;
73900;SDS011;62235;52.160;7.526;2022-12-18T10:33:12;11.65;;;5.80;;
73900;SDS011;62235;52.160;7.526;2022-12-18T10:35:40;16.60;;;7.95;;
73900;SDS011;62235;52.160;7.526;2022-12-18T10:38:07;8.35;;;4.30;;
73900;SDS011;62235;52.160;7.526;2022-12-18T10:43:28;10.10;;;5.05;;
73900;SDS011;62235;52.160;7.526;2022-12-18T10:45:58;12.32;;;5.68;;
73900;SDS011;62235;52.160;7.526;2022-12-18T10:48:24;12.75;;;6.95;;
73900;SDS011;62235;52.160;7.526;2022-12-18T10:50:50;12.93;;;6.93;;
73900;SDS011;62235;52.160;7.526;2022-12-18T10:53:20;11.93;;;6.57;;
73900;SDS011;62235;52.160;7.526;2022-12-18T10:55:54;14.00;;;7.00;;
73900;SDS011;62235;52.160;7.526;2022-12-18T10:58:28;17.27;;;8.02;;
73900;SDS011;62235;52.160;7.526;2022-12-18T11:06:06;21.60;;;10.88;;
73900;SDS011;62235;52.160;7.526;2022-12-18T11:08:38;20.90;;;11.20;;
73900;SDS011;62235;52.160;7.526;2022-12-18T11:11:07;23.42;;;11.02;;
73900;SDS011;62235;52.160;7.526;2022-12-18T11:16:33;14.85;;;8.88;;
73900;SDS011;62235;52.160;7.526;2022-12-18T11:27:26;15.05;;;7.43;;
73900;SDS011;62235;52.160;7.526;2022-12-18T11:29:51;12.48;;;6.03;;
73900;SDS011;62235;52.160;7.526;2022-12-18T11:32:36;11.47;;;5.77;;
73900;SDS011;62235;52.160;7.526;2022-12-18T11:37:53;10.50;;;6.55;;
73900;SDS011;62235;52.160;7.526;2022-12-18T11:40:25;13.70;;;5.78;;
73900;SDS011;62235;52.160;7.526;2022-12-18T11:43:02;15.23;;;6.50;;
73900;SDS011;62235;52.160;7.526;2022-12-18T11:45:48;9.95;;;5.72;;
73900;SDS011;62235;52.160;7.526;2022-12-18T11:48:23;10.60;;;4.95;;
73900;SDS011;62235;52.160;7.526;2022-12-18T11:50:52;14.63;;;6.65;;
73900;SDS011;62235;52.160;7.526;2022-12-18T11:53:19;11.82;;;6.22;;
73900;SDS011;62235;52.160;7.526;2022-12-18T11:58:42;9.40;;;4.00;;
73900;SDS011;62235;52.160;7.526;2022-12-18T12:03:53;10.65;;;5.38;;
73900;SDS011;62235;52.160;7.526;2022-12-18T12:14:50;11.60;;;5.90;;
73900;SDS011;62235;52.160;7.526;2022-12-18T12:17:42;11.85;;;6.47;;
73900;SDS011;62235;52.160;7.526;2022-12-18T12:23:00;21.25;;;8.23;;
73900;SDS011;62235;52.160;7.526;2022-12-18T12:25:40;13.57;;;7.13;;
73900;SDS011;62235;52.160;7.526;2022-12-18T12:31:20;13.20;;;6.95;;
73900;SDS011;62235;52.160;7.526;2022-12-18T12:36:54;16.15;;;6.97;;
73900;SDS011;62235;52.160;7.526;2022-12-18T12:39:22;16.35;;;7.18;;
73900;SDS011;62235;52.160;7.526;2022-12-18T12:41:51;13.57;;;8.52;;
73900;SDS011;62235;52.160;7.526;2022-12-18T12:44:37;16.42;;;8.55;;
73900;SDS011;62235;52.160;7.526;2022-12-18T12:47:09;15.95;;;9.43;;
73900;SDS011;62235;52.160;7.526;2022-12-18T12:49:41;14.55;;;8.32;;
73900;SDS011;62235;52.160;7.526;2022-12-18T12:52:12;17.73;;;8.18;;
73900;SDS011;62235;52.160;7.526;2022-12-18T12:54:40;17.38;;;8.35;;
73900;SDS011;62235;52.160;7.526;2022-12-18T13:00:04;15.63;;;7.20;;
73900;SDS011;62235;52.160;7.526;2022-12-18T13:05:21;15.02;;;7.70;;
73900;SDS011;62235;52.160;7.526;2022-12-18T13:08:03;17.02;;;8.75;;
73900;SDS011;62235;52.160;7.526;2022-12-18T13:10:52;15.32;;;8.23;;
73900;SDS011;62235;52.160;7.526;2022-12-18T13:13:53;17.38;;;9.13;;
73900;SDS011;62235;52.160;7.526;2022-12-18T13:16:21;21.35;;;9.68;;
73900;SDS011;62235;52.160;7.526;2022-12-18T13:18:54;14.02;;;7.93;;
73900;SDS011;62235;52.160;7.526;2022-12-18T13:21:23;15.32;;;7.75;;
73900;SDS011;62235;52.160;7.526;2022-12-18T13:23:51;21.77;;;9.20;;
73900;SDS011;62235;52.160;7.526;2022-12-18T13:28:49;10.40;;;5.67;;
73900;SDS011;62235;52.160;7.526;2022-12-18T13:33:48;12.25;;;5.60;;
73900;SDS011;62235;52.160;7.526;2022-12-18T13:36:15;12.77;;;5.87;;
73900;SDS011;62235;52.160;7.526;2022-12-18T13:38:42;11.50;;;5.78;;
73900;SDS011;62235;52.160;7.526;2022-12-18T13:43:46;11.02;;;4.97;;
73900;SDS011;62235;52.160;7.526;2022-12-18T13:49:03;15.32;;;6.03;;
73900;SDS011;62235;52.160;7.526;2022-12-18T13:51:49;9.80;;;5.38;;
73900;SDS011;62235;52.160;7.526;2022-12-18T13:57:24;11.18;;;5.70;;
73900;SDS011;62235;52.160;7.526;2022-12-18T13:59:51;12.90;;;5.25;;
73900;SDS011;62235;52.160;7.526;2022-12-18T14:02:18;13.18;;;6.68;;
73900;SDS011;62235;52.160;7.526;2022-12-18T14:04:46;11.57;;;5.50;;
73900;SDS011;62235;52.160;7.526;2022-12-18T14:09:43;12.02;;;6.60;;
73900;SDS011;62235;52.160;7.526;2022-12-18T14:12:32;7.88;;;4.75;;
73900;SDS011;62235;52.160;7.526;2022-12-18T14:20:50;9.30;;;5.05;;
73900;SDS011;62235;52.160;7.526;2022-12-18T14:25:56;12.60;;;6.25;;
73900;SDS011;62235;52.160;7.526;2022-12-18T14:28:21;13.05;;;5.80;;
73900;SDS011;62235;52.160;7.526;2022-12-18T14:30:48;12.85;;;6.20;;
73900;SDS011;62235;52.160;7.526;2022-12-18T14:33:15;11.45;;;5.60;;
73900;SDS011;62235;52.160;7.526;2022-12-18T14:35:58;11.50;;;6.18;;
73900;SDS011;62235;52.160;7.526;2022-12-18T14:38:34;15.88;;;8.77;;
73900;SDS011;62235;52.160;7.526;2022-12-18T14:43:37;11.52;;;6.05;;
73900;SDS011;62235;52.160;7.526;2022-12-18T14:46:49;18.23;;;8.20;;
73900;SDS011;62235;52.160;7.526;2022-12-18T14:48:51;13.93;;;7.15;;
73900;SDS011;62235;52.160;7.526;2022-12-18T14:51:23;12.63;;;5.97;;
73900;SDS011;62235;52.160;7.526;2022-12-18T14:54:03;8.88;;;5.20;;
73900;SDS011;62235;52.160;7.526;2022-12-18T14:56:36;9.88;;;5.97;;
73900;SDS011;62235;52.160;7.526;2022-12-18T14:59:03;12.10;;;5.30;;
73900;SDS011;62235;52.160;7.526;2022-12-18T15:01:34;9.23;;;3.67;;
73900;SDS011;62235;52.160;7.526;2022-12-18T15:04:02;9.23;;;4.53;;
73900;SDS011;62235;52.160;7.526;2022-12-18T15:06:34;10.48;;;5.00;;
73900;SDS011;62235;52.160;7.526;2022-12-18T15:09:02;8.80;;;4.65;;
73900;SDS011;62235;52.160;7.526;2022-12-18T15:11:33;9.95;;;5.45;;
73900;SDS011;62235;52.160;7.526;2022-12-18T15:14:21;4.32;;;2.65;;
73900;SDS011;62235;52.160;7.526;2022-12-18T15:19:43;10.02;;;5.75;;
73900;SDS011;62235;52.160;7.526;2022-12-18T15:22:17;7.88;;;4.95;;
73900;SDS011;62235;52.160;7.526;2022-12-18T15:24:51;8.38;;;4.03;;
73900;SDS011;62235;52.160;7.526;2022-12-18T15:27:20;11.60;;;4.68;;
73900;SDS011;62235;52.160;7.526;2022-12-18T15:32:28;9.00;;;4.80;;
73900;SDS011;62235;52.160;7.526;2022-12-18T15:37:41;14.88;;;6.57;;
73900;SDS011;62235;52.160;7.526;2022-12-18T15:40:08;14.50;;;5.93;;
73900;SDS011;62235;52.160;7.526;2022-12-18T15:42:37;13.38;;;5.97;;
73900;SDS011;62235;52.160;7.526;2022-12-18T15:45:21;15.43;;;6.32;;
73900;SDS011;62235;52.160;7.526;2022-12-18T15:47:46;10.00;;;5.70;;
73900;SDS011;62235;52.160;7.526;2022-12-18T15:50:12;10.23;;;5.57;;
73900;SDS011;62235;52.160;7.526;2022-12-18T15:52:44;10.85;;;5.15;;
73900;SDS011;62235;52.160;7.526;2022-12-18T15:55:15;9.82;;;4.95;;
73900;SDS011;62235;52.160;7.526;2022-12-18T15:58:05;8.82;;;4.20;;
73900;SDS011;62235;52.160;7.526;2022-12-18T16:00:32;20.58;;;7.50;;
73900;SDS011;62235;52.160;7.526;2022-12-18T16:02:59;8.85;;;3.97;;
73900;SDS011;62235;52.160;7.526;2022-12-18T16:05:24;8.60;;;3.42;;
73900;SDS011;62235;52.160;7.526;2022-12-18T16:07:51;6.15;;;2.88;;
73900;SDS011;62235;52.160;7.526;2022-12-18T16:10:16;7.20;;;4.28;;
73900;SDS011;62235;52.160;7.526;2022-12-18T16:12:42;18.27;;;7.95;;
73900;SDS011;62235;52.160;7.526;2022-12-18T16:15:07;7.45;;;3.80;;
73900;SDS011;62235;52.160;7.526;2022-12-18T16:17:36;9.98;;;4.88;;
73900;SDS011;62235;52.160;7.526;2022-12-18T16:20:01;9.90;;;4.30;;
73900;SDS011;62235;52.160;7.526;2022-12-18T16:22:29;9.48;;;4.63;;
73900;SDS011;62235;52.160;7.526;2022-12-18T16:24:55;8.75;;;4.53;;
73900;SDS011;62235;52.160;7.526;2022-12-18T16:27:21;7.72;;;4.05;;
73900;SDS011;62235;52.160;7.526;2022-12-18T16:29:47;8.55;;;4.78;;
73900;SDS011;62235;52.160;7.526;2022-12-18T16:32:14;10.57;;;5.00;;
73900;SDS011;62235;52.160;7.526;2022-12-18T16:34:41;8.43;;;5.50;;